Time;durP1;ratioP1;P1;durP2;ratioP2;P2;SDS_P1;SDS_P2;PMS_P1;PMS_P2;Temp;Humidity;BMP_temperature;BMP_pressure;BME280_temperature;BME280_humidity;BME280_pressure;Samples;Min_cycle;Max_cycle;Signal;HPM_P1;HPM_P2
2022/01/20 00:00:33;;;;;;;16.43;2.70;;;5.50;99.90;;;;;;5075631;28;20648;-58
2022/01/20 00:03:03;;;;;;;8.60;1.77;;;5.50;99.90;;;;;;5061601;28;20290;-58
2022/01/20 00:08:11;;;;;;;10.83;2.53;;;5.10;99.90;;;;;;5076994;28;20204;-56
2022/01/20 00:27:18;;;;;;;7.97;1.97;;;5.40;99.90;;;;;;5076123;28;20721;-57
2022/01/20 00:32:28;;;;;;;11.43;2.07;;;5.70;99.90;;;;;;5075549;28;20915;-58
2022/01/20 00:37:24;;;;;;;18.17;2.43;;;5.20;99.90;;;;;;5077733;28;20216;-55
2022/01/20 00:39:51;;;;;;;14.87;1.90;;;5.40;99.90;;;;;;5075436;28;20541;-57
2022/01/20 00:42:18;;;;;;;11.33;2.87;;;5.50;99.90;;;;;;5074393;28;20212;-57
2022/01/20 00:44:46;;;;;;;8.10;2.10;;;5.60;99.90;;;;;;5070760;28;20630;-57
2022/01/20 00:47:15;;;;;;;10.87;2.67;;;5.60;99.90;;;;;;5076258;28;20242;-57
2022/01/20 00:49:43;;;;;;;13.87;2.10;;;5.40;99.90;;;;;;5074723;28;20321;-61
2022/01/20 00:52:10;;;;;;;12.67;2.37;;;5.50;99.90;;;;;;5078702;28;20206;-56
2022/01/20 00:54:37;;;;;;;19.93;2.10;;;5.60;99.90;;;;;;5076613;28;20241;-58
2022/01/20 00:57:04;;;;;;;12.93;2.20;;;5.50;99.90;;;;;;5060326;28;20670;-56
2022/01/20 00:59:32;;;;;;;11.97;2.23;;;5.50;99.90;;;;;;5075923;28;20250;-57
2022/01/20 01:02:01;;;;;;;13.10;2.10;;;5.50;99.90;;;;;;5072704;28;20209;-55
2022/01/20 01:04:28;;;;;;;12.60;2.07;;;5.70;99.90;;;;;;5076043;28;20202;-56
2022/01/20 01:09:23;;;;;;;11.63;1.93;;;5.70;99.90;;;;;;5074765;28;20256;-58
2022/01/20 01:11:52;;;;;;;6.80;1.83;;;5.70;99.90;;;;;;5078518;28;20562;-57
2022/01/20 01:14:21;;;;;;;6.33;1.70;;;5.70;99.90;;;;;;5041006;28;20212;-57
2022/01/20 01:22:04;;;;;;;7.40;1.47;;;5.40;99.90;;;;;;5076802;28;20197;-58
2022/01/20 01:24:31;;;;;;;6.00;1.87;;;5.40;99.90;;;;;;5079157;28;20610;-58
2022/01/20 01:26:58;;;;;;;7.27;1.73;;;5.50;99.90;;;;;;5081675;28;20267;-56
2022/01/20 01:32:01;;;;;;;9.27;1.77;;;5.70;99.90;;;;;;5079428;28;20243;-58
2022/01/20 01:34:30;;;;;;;11.47;2.93;;;5.80;99.90;;;;;;5077974;28;21065;-57
2022/01/20 01:39:27;;;;;;;3.67;1.60;;;6.00;99.90;;;;;;5076112;28;20212;-58
2022/01/20 01:41:56;;;;;;;7.43;1.97;;;5.90;99.90;;;;;;5079347;28;20301;-57
2022/01/20 01:44:27;;;;;;;7.67;1.40;;;5.90;99.90;;;;;;5076748;28;20290;-58
2022/01/20 01:46:56;;;;;;;10.10;1.83;;;6.00;99.90;;;;;;5053284;28;20236;-58
2022/01/20 01:49:23;;;;;;;10.47;2.17;;;6.00;99.90;;;;;;5075697;28;20297;-58
2022/01/20 01:51:50;;;;;;;6.73;1.60;;;5.90;99.90;;;;;;5076930;28;20291;-58
2022/01/20 01:54:18;;;;;;;5.97;1.40;;;5.60;99.90;;;;;;5076388;28;20596;-56
2022/01/20 01:56:48;;;;;;;13.37;2.20;;;5.40;99.90;;;;;;5060726;28;20280;-58
2022/01/20 01:59:15;;;;;;;7.30;1.47;;;5.30;99.90;;;;;;5055465;28;20226;-57
2022/01/20 02:01:42;;;;;;;5.07;1.33;;;5.30;99.90;;;;;;5075290;28;20668;-58
2022/01/20 02:04:15;;;;;;;10.67;1.73;;;5.30;99.90;;;;;;5071908;28;20208;-58
2022/01/20 02:20:26;;;;;;;11.30;1.77;;;5.80;99.90;;;;;;5070991;28;20354;-55
2022/01/20 02:22:53;;;;;;;11.53;1.73;;;5.80;99.90;;;;;;5056840;28;20192;-58
2022/01/20 02:25:23;;;;;;;8.77;1.50;;;5.80;99.90;;;;;;5079182;28;20204;-58
2022/01/20 02:27:52;;;;;;;7.70;1.53;;;5.80;99.90;;;;;;5081206;28;20329;-58
2022/01/20 02:30:23;;;;;;;4.67;1.20;;;5.80;99.90;;;;;;5056231;28;20602;-55
2022/01/20 02:33:24;;;;;;;8.40;2.30;;;5.80;99.90;;;;;;5058263;28;20207;-59
2022/01/20 02:35:56;;;;;;;6.80;1.53;;;5.90;99.90;;;;;;5049535;28;20521;-57
2022/01/20 02:38:35;;;;;;;6.00;1.10;;;5.90;99.90;;;;;;5080187;28;20206;-58
2022/01/20 02:46:37;;;;;;;7.47;1.10;;;5.90;99.90;;;;;;5080605;28;20228;-58
2022/01/20 02:49:07;;;;;;;12.23;1.27;;;6.00;99.90;;;;;;5079024;28;20205;-55
2022/01/20 02:51:35;;;;;;;8.63;1.27;;;6.00;99.90;;;;;;5080602;28;20900;-58
2022/01/20 02:54:08;;;;;;;7.80;1.23;;;5.90;99.90;;;;;;5080910;28;20205;-58
2022/01/20 02:56:35;;;;;;;11.00;1.20;;;5.90;99.90;;;;;;5063683;28;20566;-58
2022/01/20 02:59:02;;;;;;;11.10;1.67;;;5.80;99.90;;;;;;5083011;28;20226;-57
2022/01/20 03:01:28;;;;;;;3.63;1.33;;;5.80;99.90;;;;;;5081037;28;20208;-54
2022/01/20 03:03:58;;;;;;;13.23;1.83;;;5.80;99.90;;;;;;5076029;28;20207;-55
2022/01/20 03:06:24;;;;;;;15.20;1.40;;;5.80;99.90;;;;;;5080929;28;20606;-57
2022/01/20 03:08:51;;;;;;;10.33;1.40;;;5.70;99.90;;;;;;5080542;28;20246;-57
2022/01/20 03:11:18;;;;;;;4.27;1.03;;;5.70;99.90;;;;;;5063642;28;20196;-57
2022/01/20 03:13:45;;;;;;;6.33;1.53;;;5.70;99.90;;;;;;5081474;28;20285;-58
2022/01/20 03:16:12;;;;;;;7.93;1.50;;;5.70;99.90;;;;;;5080068;28;20210;-56
2022/01/20 03:18:39;;;;;;;4.40;1.30;;;5.70;99.90;;;;;;5079961;28;20287;-58
2022/01/20 03:21:06;;;;;;;13.40;1.87;;;5.60;99.90;;;;;;5079038;28;20323;-56
2022/01/20 03:23:34;;;;;;;7.33;1.57;;;5.70;99.90;;;;;;5080810;28;20693;-57
2022/01/20 03:26:01;;;;;;;7.57;1.53;;;5.70;99.90;;;;;;5062757;28;20199;-56
2022/01/20 03:28:28;;;;;;;9.43;1.57;;;5.70;99.90;;;;;;5080969;28;20293;-57
2022/01/20 03:30:55;;;;;;;7.70;1.50;;;5.70;99.90;;;;;;5078494;28;20275;-57
2022/01/20 03:33:22;;;;;;;6.80;1.13;;;5.60;99.90;;;;;;5081467;28;20199;-58
2022/01/20 03:35:51;;;;;;;14.20;1.47;;;5.70;99.90;;;;;;5077136;28;20194;-58
2022/01/20 03:38:19;;;;;;;6.37;1.63;;;5.70;99.90;;;;;;5081836;28;20300;-58
2022/01/20 03:40:46;;;;;;;10.17;1.73;;;5.70;99.90;;;;;;5080140;28;20304;-58
2022/01/20 03:43:13;;;;;;;8.57;1.80;;;5.70;99.90;;;;;;5080920;28;20202;-59
2022/01/20 03:45:41;;;;;;;7.83;1.53;;;5.60;99.90;;;;;;5079453;28;20209;-56
2022/01/20 03:48:11;;;;;;;12.27;1.53;;;5.70;99.90;;;;;;5080044;28;20333;-58
2022/01/20 03:53:25;;;;;;;9.33;1.30;;;5.70;99.90;;;;;;5079790;28;20337;-58
2022/01/20 03:55:52;;;;;;;7.90;1.70;;;5.80;99.90;;;;;;5077654;28;20296;-57
2022/01/20 03:58:18;;;;;;;9.90;1.70;;;5.80;99.90;;;;;;5080718;28;20228;-57
2022/01/20 04:00:45;;;;;;;5.90;1.47;;;5.80;99.90;;;;;;5082736;28;20247;-58
2022/01/20 04:03:15;;;;;;;8.37;1.63;;;5.80;99.90;;;;;;5077351;28;20246;-58
2022/01/20 04:05:56;;;;;;;8.00;1.50;;;5.80;99.90;;;;;;5059784;28;20297;-58
2022/01/20 04:08:25;;;;;;;7.47;1.37;;;5.80;99.90;;;;;;5078960;28;22137;-58
2022/01/20 04:10:52;;;;;;;5.23;1.23;;;5.80;99.90;;;;;;5081710;28;20287;-58
2022/01/20 04:13:19;;;;;;;8.17;1.73;;;5.80;99.90;;;;;;5080501;28;20630;-58
2022/01/20 04:15:48;;;;;;;13.43;1.80;;;5.70;99.90;;;;;;5081905;28;20385;-55
2022/01/20 04:18:21;;;;;;;11.03;2.07;;;5.60;99.90;;;;;;5079960;28;20206;-57
2022/01/20 04:20:48;;;;;;;8.03;1.77;;;5.50;99.90;;;;;;5059323;28;20305;-58
2022/01/20 04:23:15;;;;;;;12.13;2.40;;;5.40;99.90;;;;;;5078233;28;20199;-56
2022/01/20 04:25:42;;;;;;;6.50;1.53;;;5.30;99.90;;;;;;5078596;28;20282;-57
2022/01/20 04:28:09;;;;;;;8.10;1.73;;;5.40;99.90;;;;;;5079932;28;20210;-58
2022/01/20 04:30:36;;;;;;;5.43;1.63;;;5.30;99.90;;;;;;5079363;28;20199;-57
2022/01/20 04:33:03;;;;;;;8.83;1.60;;;5.40;99.90;;;;;;5062005;28;20206;-57
2022/01/20 04:35:30;;;;;;;4.17;1.23;;;5.40;99.90;;;;;;5077517;28;20205;-58
2022/01/20 04:37:58;;;;;;;6.43;1.60;;;5.40;99.90;;;;;;5074455;28;20301;-56
2022/01/20 04:40:25;;;;;;;5.97;1.30;;;5.40;99.90;;;;;;5080677;28;20216;-56
2022/01/20 04:42:52;;;;;;;7.97;1.50;;;5.30;99.90;;;;;;5079774;28;20284;-57
2022/01/20 04:45:23;;;;;;;6.13;2.03;;;5.40;99.90;;;;;;5075040;28;20204;-56
2022/01/20 04:58:36;;;;;;;12.17;1.30;;;5.50;99.90;;;;;;5080492;28;20204;-56
2022/01/20 05:01:03;;;;;;;10.60;1.87;;;5.60;99.90;;;;;;5080148;28;21014;-55
2022/01/20 05:03:30;;;;;;;9.80;1.30;;;5.60;99.90;;;;;;5080193;28;20212;-57
2022/01/20 05:05:57;;;;;;;6.30;1.43;;;5.60;99.90;;;;;;5074960;28;20195;-55
2022/01/20 05:08:28;;;;;;;12.37;2.63;;;5.70;99.90;;;;;;5079084;28;20265;-58
2022/01/20 05:10:55;;;;;;;6.97;1.27;;;5.60;99.90;;;;;;5081320;28;20300;-57
2022/01/20 05:13:32;;;;;;;10.90;2.50;;;5.70;99.90;;;;;;5080401;28;20219;-57
2022/01/20 05:16:00;;;;;;;6.13;2.30;;;5.60;99.90;;;;;;5080025;28;20210;-58
2022/01/20 05:18:27;;;;;;;10.43;2.03;;;5.60;99.90;;;;;;5079382;28;20618;-58
2022/01/20 05:20:54;;;;;;;9.47;2.10;;;5.60;99.90;;;;;;5075779;28;20319;-58
2022/01/20 05:23:21;;;;;;;4.00;1.70;;;5.70;99.90;;;;;;5080728;28;20208;-58
2022/01/20 05:25:48;;;;;;;5.80;1.97;;;5.40;99.90;;;;;;5076222;28;20717;-56
2022/01/20 05:28:14;;;;;;;4.03;1.23;;;5.40;99.90;;;;;;5079354;28;20648;-58
2022/01/20 05:30:41;;;;;;;8.17;1.00;;;5.20;99.90;;;;;;5080036;28;20299;-58
2022/01/20 05:33:09;;;;;;;8.70;1.47;;;5.20;99.90;;;;;;5082527;28;20661;-57
2022/01/20 05:35:36;;;;;;;6.47;1.70;;;5.10;99.90;;;;;;5078350;28;20712;-56
2022/01/20 05:38:03;;;;;;;2.23;1.20;;;5.10;99.90;;;;;;5081256;28;20282;-58
2022/01/20 05:40:30;;;;;;;5.63;1.00;;;5.10;99.90;;;;;;5079673;28;20222;-56
2022/01/20 05:42:57;;;;;;;4.90;1.87;;;5.10;99.90;;;;;;5079099;28;20214;-58
2022/01/20 05:45:25;;;;;;;7.97;1.20;;;5.00;99.90;;;;;;5078450;28;20294;-58
2022/01/20 05:48:07;;;;;;;2.80;1.00;;;5.00;99.90;;;;;;5069231;28;20231;-58
2022/01/20 05:50:34;;;;;;;11.10;2.23;;;5.00;99.90;;;;;;5062739;28;20215;-56
2022/01/20 05:53:02;;;;;;;15.13;2.83;;;5.10;99.90;;;;;;5062666;28;20689;-58
2022/01/20 05:55:29;;;;;;;8.43;1.53;;;4.90;99.90;;;;;;5065908;28;20199;-58
2022/01/20 05:57:56;;;;;;;13.17;1.97;;;5.10;99.90;;;;;;5066538;28;20604;-58
2022/01/20 06:00:24;;;;;;;11.83;2.20;;;5.00;99.90;;;;;;5064264;28;20227;-58
2022/01/20 06:05:39;;;;;;;8.90;2.00;;;5.10;99.90;;;;;;5066180;28;20605;-57
2022/01/20 06:08:06;;;;;;;6.03;1.67;;;5.20;99.90;;;;;;5066316;28;20620;-57
2022/01/20 06:10:34;;;;;;;11.83;2.00;;;5.10;99.90;;;;;;5068187;28;20238;-58
2022/01/20 06:13:01;;;;;;;9.63;1.90;;;5.20;99.90;;;;;;5065350;28;20721;-58
2022/01/20 06:15:28;;;;;;;7.73;1.70;;;5.30;99.90;;;;;;5065046;28;20713;-58
2022/01/20 06:17:55;;;;;;;11.70;1.80;;;5.20;99.90;;;;;;5065749;28;20231;-56
2022/01/20 06:20:22;;;;;;;10.77;2.03;;;5.30;99.90;;;;;;5063275;28;20222;-55
2022/01/20 06:22:49;;;;;;;9.30;1.70;;;5.30;99.90;;;;;;5066442;28;20201;-58
2022/01/20 06:25:16;;;;;;;11.00;1.93;;;5.30;99.90;;;;;;5067373;28;20198;-58
2022/01/20 06:27:43;;;;;;;14.97;2.17;;;5.30;99.90;;;;;;5065605;28;20204;-57
2022/01/20 06:30:10;;;;;;;13.77;2.13;;;5.30;99.90;;;;;;5047260;28;20312;-57
2022/01/20 06:32:37;;;;;;;10.47;2.10;;;5.40;99.90;;;;;;5067081;28;20210;-57
2022/01/20 06:35:05;;;;;;;8.30;2.17;;;5.40;99.90;;;;;;5063969;28;20212;-57
2022/01/20 06:37:32;;;;;;;6.17;2.00;;;5.50;99.90;;;;;;5048284;28;20204;-57
2022/01/20 06:39:59;;;;;;;13.43;2.67;;;5.30;99.90;;;;;;5065098;28;20297;-57
2022/01/20 06:42:26;;;;;;;9.67;2.27;;;5.30;99.90;;;;;;5065593;28;20236;-57
2022/01/20 06:44:53;;;;;;;9.40;2.60;;;5.30;99.90;;;;;;5060419;28;20203;-57
2022/01/20 06:47:20;;;;;;;8.37;1.77;;;5.20;99.90;;;;;;5047176;28;20236;-57
2022/01/20 06:49:47;;;;;;;7.43;1.97;;;5.30;99.90;;;;;;5060146;28;20208;-57
2022/01/20 06:52:14;;;;;;;13.67;2.53;;;5.10;99.90;;;;;;5061726;28;20296;-57
2022/01/20 06:54:41;;;;;;;13.27;1.90;;;5.00;99.90;;;;;;5060588;28;21147;-56
2022/01/20 06:57:18;;;;;;;9.57;2.20;;;5.10;99.90;;;;;;5059173;28;20200;-55
2022/01/20 06:59:44;;;;;;;13.77;2.00;;;5.10;99.90;;;;;;5061077;28;20204;-57
2022/01/20 07:02:12;;;;;;;7.87;1.80;;;5.10;99.90;;;;;;5057854;28;20223;-57
2022/01/20 07:04:40;;;;;;;14.40;3.07;;;5.10;99.90;;;;;;5056836;28;20205;-58
2022/01/20 07:07:06;;;;;;;5.00;1.73;;;5.10;99.90;;;;;;5062003;28;20288;-57
2022/01/20 07:09:33;;;;;;;7.40;1.67;;;5.10;99.90;;;;;;5059738;28;20311;-57
2022/01/20 07:12:01;;;;;;;7.47;1.93;;;5.10;99.90;;;;;;5062343;28;20339;-58
2022/01/20 07:14:29;;;;;;;12.23;1.53;;;5.10;99.90;;;;;;5057753;28;20230;-58
2022/01/20 07:16:57;;;;;;;10.13;1.70;;;5.20;99.90;;;;;;5061736;28;20233;-58
2022/01/20 07:19:24;;;;;;;11.43;1.83;;;5.10;99.90;;;;;;5053220;28;20705;-58
2022/01/20 07:21:51;;;;;;;8.13;1.80;;;5.10;99.90;;;;;;5056898;28;20770;-57
2022/01/20 07:24:18;;;;;;;9.80;1.60;;;5.20;99.90;;;;;;5057518;28;20208;-59
2022/01/20 07:26:45;;;;;;;7.77;1.57;;;5.10;99.90;;;;;;5058538;28;20230;-58
2022/01/20 07:29:13;;;;;;;6.63;1.77;;;5.10;99.90;;;;;;5059617;28;20289;-59
2022/01/20 07:31:39;;;;;;;10.50;2.07;;;5.10;99.90;;;;;;5057558;28;20209;-58
2022/01/20 07:34:06;;;;;;;7.87;1.33;;;5.20;99.90;;;;;;5057781;28;20257;-57
2022/01/20 07:36:33;;;;;;;6.83;1.70;;;5.20;99.90;;;;;;5060032;28;20648;-57
2022/01/20 07:39:00;;;;;;;5.80;1.70;;;5.20;99.90;;;;;;5059490;28;20212;-58
2022/01/20 07:41:27;;;;;;;10.37;1.80;;;5.30;99.90;;;;;;5058970;28;20217;-58
2022/01/20 07:43:54;;;;;;;13.13;3.33;;;5.40;99.90;;;;;;5058272;28;20672;-56
2022/01/20 07:46:24;;;;;;;11.97;1.90;;;5.40;99.90;;;;;;5062551;28;20257;-58
2022/01/20 07:48:51;;;;;;;7.20;1.93;;;5.40;99.90;;;;;;5064748;28;20676;-58
2022/01/20 07:51:19;;;;;;;11.43;1.77;;;5.50;99.90;;;;;;5066895;28;20198;-58
2022/01/20 07:53:46;;;;;;;10.93;2.00;;;5.40;99.90;;;;;;5064665;28;20744;-58
2022/01/20 07:56:13;;;;;;;9.37;1.77;;;5.30;99.90;;;;;;5060963;28;21812;-58
2022/01/20 07:58:40;;;;;;;10.87;2.53;;;5.30;99.90;;;;;;5060170;28;20208;-57
2022/01/20 08:01:07;;;;;;;7.87;2.20;;;5.30;99.90;;;;;;5059445;28;20245;-59
2022/01/20 08:03:34;;;;;;;11.53;2.07;;;5.40;99.90;;;;;;5040607;28;20209;-57
2022/01/20 08:06:00;;;;;;;11.97;2.10;;;5.40;99.90;;;;;;5059636;28;20619;-57
2022/01/20 08:08:27;;;;;;;11.77;2.33;;;5.40;99.90;;;;;;5044459;28;20572;-58
2022/01/20 08:10:54;;;;;;;8.10;2.03;;;5.20;99.90;;;;;;5048736;28;20556;-58
2022/01/20 08:13:21;;;;;;;11.70;2.07;;;5.20;99.90;;;;;;5063492;28;20204;-57
2022/01/20 08:15:48;;;;;;;7.83;1.83;;;5.10;99.90;;;;;;5040172;28;20655;-58
2022/01/20 08:18:15;;;;;;;9.90;1.70;;;5.10;99.90;;;;;;5062223;28;20293;-58
2022/01/20 08:20:42;;;;;;;9.67;1.50;;;5.10;99.90;;;;;;5061004;28;20287;-57
2022/01/20 08:23:08;;;;;;;11.37;2.20;;;5.20;99.90;;;;;;5056218;28;20912;-58
2022/01/20 08:25:35;;;;;;;5.13;1.37;;;5.10;99.90;;;;;;5052294;28;20635;-57
2022/01/20 08:28:03;;;;;;;8.77;1.83;;;5.00;99.90;;;;;;5053504;28;20218;-58
2022/01/20 08:30:30;;;;;;;6.43;1.47;;;4.90;99.90;;;;;;5056394;28;20339;-55
2022/01/20 08:32:57;;;;;;;5.97;1.30;;;4.90;99.90;;;;;;5060767;28;20626;-56
2022/01/20 08:35:24;;;;;;;7.33;1.60;;;4.90;99.90;;;;;;5059956;28;20663;-59
2022/01/20 08:37:51;;;;;;;9.50;1.57;;;4.90;99.90;;;;;;5060269;28;20817;-58
2022/01/20 08:40:22;;;;;;;7.93;1.50;;;4.80;99.90;;;;;;5055147;28;20640;-58
2022/01/20 08:42:51;;;;;;;7.57;1.53;;;4.80;99.90;;;;;;5062827;28;20206;-58
2022/01/20 08:45:21;;;;;;;2.50;0.90;;;5.00;99.90;;;;;;5061315;28;20287;-56
2022/01/20 08:47:52;;;;;;;7.63;1.17;;;5.10;99.90;;;;;;5052232;28;20286;-59
2022/01/20 08:50:19;;;;;;;7.57;1.73;;;5.20;99.90;;;;;;5065955;28;20609;-58
2022/01/20 08:52:47;;;;;;;5.13;1.20;;;5.20;99.90;;;;;;5068888;28;20226;-58
2022/01/20 08:55:15;;;;;;;5.53;1.23;;;5.10;99.90;;;;;;5068355;28;20209;-63
2022/01/20 08:57:42;;;;;;;5.30;1.33;;;5.20;99.90;;;;;;5070030;28;20650;-58
2022/01/20 09:00:10;;;;;;;7.23;1.50;;;5.20;99.90;;;;;;5071861;28;20629;-58
2022/01/20 09:02:37;;;;;;;6.40;1.43;;;5.20;99.90;;;;;;5066922;28;20213;-58
2022/01/20 09:05:04;;;;;;;7.73;1.90;;;5.20;99.90;;;;;;5051447;28;20284;-59
2022/01/20 09:07:32;;;;;;;8.10;1.70;;;5.20;99.90;;;;;;5069512;28;20228;-58
2022/01/20 09:10:00;;;;;;;7.47;2.03;;;5.20;99.90;;;;;;5072162;28;20626;-58
2022/01/20 09:15:28;;;;;;;10.50;1.87;;;5.20;99.90;;;;;;5069450;28;20203;-58
2022/01/20 09:17:57;;;;;;;8.80;1.93;;;5.40;99.90;;;;;;5071444;28;20204;-58
2022/01/20 09:20:24;;;;;;;5.37;1.10;;;5.40;99.90;;;;;;5067846;28;20287;-57
2022/01/20 09:22:52;;;;;;;10.37;1.97;;;5.40;99.90;;;;;;5044034;28;20740;-58
2022/01/20 09:25:19;;;;;;;14.13;3.03;;;5.30;99.90;;;;;;5064973;28;20568;-57
2022/01/20 09:27:46;;;;;;;6.83;1.90;;;5.40;99.90;;;;;;5041962;28;20243;-58
2022/01/20 09:30:18;;;;;;;6.93;2.00;;;5.60;99.90;;;;;;5066188;28;20210;-55
2022/01/20 09:32:58;;;;;;;11.87;2.30;;;6.00;99.90;;;;;;5075008;28;20614;-58
2022/01/20 09:35:33;;;;;;;8.87;2.30;;;6.20;99.90;;;;;;5067530;28;20871;-58
2022/01/20 09:38:02;;;;;;;9.50;2.27;;;6.30;99.90;;;;;;5071212;28;20292;-55
2022/01/20 09:40:31;;;;;;;9.97;1.57;;;6.10;99.90;;;;;;5069176;28;20205;-58
2022/01/20 09:42:59;;;;;;;7.83;1.83;;;6.10;99.90;;;;;;5052923;28;21975;-57
2022/01/20 09:45:26;;;;;;;12.27;2.23;;;6.20;99.90;;;;;;5062633;28;20229;-58
2022/01/20 09:47:53;;;;;;;4.83;1.50;;;6.60;99.90;;;;;;5079592;28;20639;-57
2022/01/20 09:50:22;;;;;;;5.13;1.53;;;6.70;99.90;;;;;;5063403;28;20257;-59
2022/01/20 09:52:51;;;;;;;8.93;1.70;;;7.00;99.90;;;;;;5081545;28;20255;-58
2022/01/20 09:55:19;;;;;;;9.90;2.87;;;7.50;99.90;;;;;;5065027;28;20210;-57
2022/01/20 09:57:46;;;;;;;6.97;1.53;;;7.80;99.90;;;;;;5087004;28;20204;-58
2022/01/20 10:00:16;;;;;;;8.73;1.80;;;7.80;99.90;;;;;;5087831;28;20202;-59
2022/01/20 10:02:59;;;;;;;5.70;1.57;;;8.00;99.90;;;;;;5087674;28;20265;-57
2022/01/20 10:05:29;;;;;;;6.30;1.40;;;7.80;99.90;;;;;;5085973;28;20293;-57
2022/01/20 10:08:13;;;;;;;9.97;2.13;;;7.80;99.90;;;;;;5087672;28;20233;-56
2022/01/20 10:10:45;;;;;;;8.07;2.13;;;7.90;99.90;;;;;;5079478;28;20220;-59
2022/01/20 10:13:13;;;;;;;5.80;1.70;;;7.90;99.90;;;;;;5090329;28;20220;-58
2022/01/20 10:15:41;;;;;;;7.70;1.73;;;7.90;99.90;;;;;;5088192;28;20234;-57
2022/01/20 10:18:14;;;;;;;9.50;2.40;;;7.90;99.90;;;;;;5071111;28;20261;-57
2022/01/20 10:20:59;;;;;;;6.33;1.67;;;7.70;99.90;;;;;;5088012;28;20251;-57
2022/01/20 10:23:30;;;;;;;12.33;2.40;;;7.60;99.90;;;;;;5087665;28;20682;-57
2022/01/20 10:26:18;;;;;;;9.30;2.00;;;8.20;99.90;;;;;;5088852;28;20243;-60
2022/01/20 10:28:49;;;;;;;6.33;1.53;;;8.30;99.90;;;;;;5089498;28;20291;-57
2022/01/20 10:31:28;;;;;;;7.80;1.77;;;8.40;99.90;;;;;;5088483;28;20274;-59
2022/01/20 10:33:55;;;;;;;5.70;1.87;;;8.20;99.90;;;;;;5087376;28;20232;-54
2022/01/20 10:36:22;;;;;;;10.00;1.70;;;7.60;99.90;;;;;;5088058;28;20423;-57
2022/01/20 10:38:53;;;;;;;8.53;1.60;;;7.30;99.90;;;;;;5088554;28;20286;-57
2022/01/20 10:41:28;;;;;;;8.03;2.30;;;7.30;99.90;;;;;;5069763;28;20213;-56
2022/01/20 10:44:14;;;;;;;9.43;2.00;;;7.30;99.90;;;;;;5089082;28;20292;-56
2022/01/20 10:47:10;;;;;;;10.27;1.40;;;7.00;99.90;;;;;;5087441;28;20316;-57
2022/01/20 10:49:44;;;;;;;8.80;1.77;;;7.10;99.90;;;;;;5066353;28;20204;-57
2022/01/20 10:52:20;;;;;;;8.10;2.00;;;7.20;99.90;;;;;;5097779;28;20223;-56
2022/01/20 10:54:53;;;;;;;9.77;1.70;;;6.90;99.90;;;;;;5096280;28;20255;-58
2022/01/20 10:57:31;;;;;;;10.40;1.77;;;6.90;99.90;;;;;;5098997;28;20208;-56
2022/01/20 11:00:08;;;;;;;7.70;1.60;;;7.10;99.90;;;;;;5098897;28;20216;-57
2022/01/20 11:02:35;;;;;;;9.43;2.47;;;7.00;99.90;;;;;;5098249;28;20208;-59
2022/01/20 11:05:04;;;;;;;12.53;2.07;;;7.00;99.90;;;;;;5096783;28;20258;-56
2022/01/20 11:07:32;;;;;;;6.17;1.73;;;6.90;99.90;;;;;;5095993;28;20270;-58
2022/01/20 11:10:04;;;;;;;4.97;1.53;;;7.10;99.90;;;;;;5096149;28;20226;-59
2022/01/20 11:12:34;;;;;;;4.93;1.50;;;7.00;99.90;;;;;;5095906;28;20290;-58
2022/01/20 11:15:08;;;;;;;7.93;1.33;;;7.30;99.90;;;;;;5097126;28;20210;-58
2022/01/20 11:17:36;;;;;;;10.27;1.80;;;7.40;99.90;;;;;;5097757;28;20202;-57
2022/01/20 11:20:08;;;;;;;8.10;1.40;;;7.30;99.90;;;;;;5078017;28;20202;-58
2022/01/20 11:22:36;;;;;;;5.83;1.30;;;6.90;99.90;;;;;;5096386;28;20290;-57
2022/01/20 11:25:08;;;;;;;7.23;1.70;;;6.60;99.90;;;;;;5098172;28;20222;-57
2022/01/20 11:27:40;;;;;;;4.40;1.33;;;6.60;99.90;;;;;;5097350;28;20234;-58
2022/01/20 11:30:14;;;;;;;5.40;1.67;;;6.60;99.90;;;;;;5097232;28;20418;-58
2022/01/20 11:32:42;;;;;;;5.20;1.30;;;6.60;99.90;;;;;;5096904;28;20258;-59
2022/01/20 11:35:10;;;;;;;6.90;1.80;;;6.50;99.90;;;;;;5094515;28;20581;-57
2022/01/20 11:37:43;;;;;;;11.30;2.27;;;6.50;99.90;;;;;;5097384;28;20201;-58
2022/01/20 11:40:20;;;;;;;5.73;1.60;;;6.70;99.90;;;;;;5094312;28;20272;-58
2022/01/20 11:43:05;;;;;;;7.80;2.03;;;6.50;99.90;;;;;;5094605;28;20229;-57
2022/01/20 11:45:36;;;;;;;7.13;1.83;;;6.60;99.90;;;;;;5085891;28;20229;-57
2022/01/20 11:48:16;;;;;;;5.27;1.30;;;6.40;99.90;;;;;;5078963;28;20702;-57
2022/01/20 11:50:44;;;;;;;5.90;1.70;;;6.50;99.90;;;;;;5070483;28;20304;-57
2022/01/20 11:53:11;;;;;;;3.30;1.13;;;6.90;99.90;;;;;;5054939;28;20258;-57
2022/01/20 11:55:46;;;;;;;10.83;1.50;;;7.40;99.90;;;;;;5076548;28;20237;-58
2022/01/20 11:58:15;;;;;;;7.43;1.70;;;7.60;99.90;;;;;;5074747;28;20203;-58
2022/01/20 12:00:42;;;;;;;5.73;1.30;;;8.00;99.90;;;;;;5076499;28;20225;-58
2022/01/20 12:03:14;;;;;;;9.93;1.50;;;8.40;99.90;;;;;;5060124;28;20215;-58
2022/01/20 12:05:42;;;;;;;7.97;1.57;;;8.70;99.90;;;;;;5069493;28;20203;-56
2022/01/20 12:08:23;;;;;;;8.50;1.50;;;8.60;99.90;;;;;;5070429;28;20566;-58
2022/01/20 12:11:07;;;;;;;6.23;1.70;;;7.80;99.90;;;;;;5072451;28;20197;-57
2022/01/20 12:13:51;;;;;;;5.73;1.17;;;7.50;99.90;;;;;;5075003;28;20210;-63
2022/01/20 12:16:20;;;;;;;10.10;1.40;;;7.30;99.90;;;;;;5073820;28;20213;-58
2022/01/20 12:18:55;;;;;;;3.30;1.20;;;7.10;99.90;;;;;;5076815;28;20195;-57
2022/01/20 12:21:24;;;;;;;10.23;1.87;;;7.20;99.90;;;;;;5075836;28;20206;-57
2022/01/20 12:23:53;;;;;;;5.13;1.20;;;7.10;99.90;;;;;;5073915;28;20251;-58
2022/01/20 12:26:20;;;;;;;5.20;2.20;;;6.90;99.90;;;;;;5078553;28;20289;-56
2022/01/20 12:28:47;;;;;;;9.17;2.00;;;6.90;99.90;;;;;;5078924;28;20294;-58
2022/01/20 12:31:14;;;;;;;12.80;2.40;;;6.70;99.90;;;;;;5072334;28;20315;-58
2022/01/20 12:33:45;;;;;;;8.23;2.37;;;6.50;99.90;;;;;;5072403;28;20216;-55
2022/01/20 12:36:15;;;;;;;12.53;1.80;;;6.40;99.90;;;;;;5063222;28;20670;-57
2022/01/20 12:38:44;;;;;;;5.30;2.10;;;6.80;99.90;;;;;;5070316;28;20198;-57
2022/01/20 12:41:21;;;;;;;6.47;1.40;;;6.90;99.90;;;;;;5057559;28;20232;-55
2022/01/20 12:44:09;;;;;;;5.90;1.70;;;6.90;99.90;;;;;;5072510;28;20225;-57
2022/01/20 12:46:39;;;;;;;5.30;1.70;;;7.50;99.90;;;;;;5068923;28;20244;-55
2022/01/20 12:49:11;;;;;;;4.33;1.97;;;7.60;99.90;;;;;;5070538;28;20201;-57
2022/01/20 12:51:54;;;;;;;3.93;1.47;;;8.00;99.90;;;;;;5077769;28;20280;-58
2022/01/20 12:54:27;;;;;;;10.53;2.07;;;8.00;99.90;;;;;;5072973;28;20713;-58
2022/01/20 12:56:57;;;;;;;8.73;1.63;;;8.60;99.90;;;;;;5077210;28;20272;-57
2022/01/20 12:59:48;;;;;;;8.33;1.93;;;9.00;99.90;;;;;;5075810;28;20213;-56
2022/01/20 13:02:23;;;;;;;8.10;1.77;;;8.70;99.90;;;;;;5077311;28;20657;-58
2022/01/20 13:05:03;;;;;;;8.07;1.87;;;8.60;99.90;;;;;;5070464;28;20644;-58
2022/01/20 13:07:33;;;;;;;8.17;1.67;;;7.90;99.90;;;;;;5071649;28;20222;-61
2022/01/20 13:10:31;;;;;;;9.73;1.87;;;7.60;99.90;;;;;;5073366;28;20252;-57
2022/01/20 13:13:00;;;;;;;8.43;1.63;;;7.10;99.90;;;;;;5071065;28;20209;-58
2022/01/20 13:15:30;;;;;;;6.93;1.40;;;6.70;99.90;;;;;;5072821;28;20547;-57
2022/01/20 13:18:15;;;;;;;4.47;1.53;;;6.70;99.90;;;;;;5074987;28;20207;-57
2022/01/20 13:20:53;;;;;;;5.63;1.20;;;6.70;99.90;;;;;;5077249;28;20313;-56
2022/01/20 13:25:47;;;;;;;3.60;1.33;;;6.80;99.90;;;;;;5072929;28;20273;-56
2022/01/20 13:28:16;;;;;;;7.83;1.77;;;6.50;99.90;;;;;;5074902;28;20639;-58
2022/01/20 13:30:48;;;;;;;12.17;2.27;;;6.40;99.90;;;;;;5081562;28;20233;-60
2022/01/20 13:33:17;;;;;;;5.63;1.37;;;6.60;99.90;;;;;;5078895;28;20209;-57
2022/01/20 13:35:46;;;;;;;10.30;1.83;;;6.60;99.90;;;;;;5070809;28;20733;-57
2022/01/20 13:38:15;;;;;;;8.73;2.23;;;6.40;99.90;;;;;;5074166;28;20431;-57
2022/01/20 13:40:45;;;;;;;11.20;1.50;;;6.90;99.90;;;;;;5070076;28;20621;-57
2022/01/20 13:46:04;;;;;;;4.50;1.43;;;7.00;99.90;;;;;;5071782;28;20881;-57
2022/01/20 13:48:33;;;;;;;11.70;1.70;;;6.80;99.90;;;;;;5080041;28;20232;-57
2022/01/20 13:51:04;;;;;;;11.53;2.00;;;6.70;99.90;;;;;;5074627;28;20290;-57
2022/01/20 13:53:35;;;;;;;7.03;1.83;;;6.70;99.90;;;;;;5078623;28;21177;-56
2022/01/20 13:56:07;;;;;;;8.77;1.93;;;6.80;99.90;;;;;;5075164;28;20206;-57
2022/01/20 13:58:37;;;;;;;5.20;1.60;;;6.40;99.90;;;;;;5056872;28;20217;-57
2022/01/20 14:01:08;;;;;;;7.97;2.60;;;6.50;99.90;;;;;;5077824;28;20313;-58
2022/01/20 14:03:40;;;;;;;12.07;2.93;;;6.50;99.90;;;;;;5077633;28;20222;-57
2022/01/20 14:06:07;;;;;;;6.73;2.13;;;6.60;99.90;;;;;;5076870;28;20664;-57
2022/01/20 14:08:36;;;;;;;8.90;2.47;;;6.60;99.90;;;;;;5079418;28;20337;-57
2022/01/20 14:11:04;;;;;;;10.77;2.10;;;6.50;99.90;;;;;;5078576;28;20195;-58
2022/01/20 14:13:31;;;;;;;9.90;2.90;;;6.50;99.90;;;;;;5076331;28;20198;-56
2022/01/20 14:16:01;;;;;;;7.97;2.30;;;6.40;99.90;;;;;;5083417;28;20230;-56
2022/01/20 14:18:34;;;;;;;10.43;2.50;;;6.40;99.90;;;;;;5083365;28;20228;-57
2022/01/20 14:21:01;;;;;;;8.80;2.00;;;6.20;99.90;;;;;;5079675;28;20306;-57
2022/01/20 14:23:28;;;;;;;10.20;2.00;;;6.30;99.90;;;;;;5059107;28;20225;-57
2022/01/20 14:25:56;;;;;;;12.17;2.03;;;6.40;99.90;;;;;;5077831;28;20291;-57